createdAt,value
2022-09-11T00:04:05.517Z,96291.31
2022-09-11T00:08:20.992Z,96303.41
2022-09-11T00:12:34.121Z,96300.91
2022-09-11T00:16:47.935Z,96294.66
2022-09-11T00:21:00.905Z,96290.53
2022-09-11T00:25:13.903Z,96281.38
2022-09-11T00:29:26.984Z,96295.97
2022-09-11T00:33:40.560Z,96287.72
2022-09-11T00:37:53.708Z,96288.34
2022-09-11T00:42:16.807Z,96273.41
2022-09-11T00:46:49.460Z,96291.84
2022-09-11T00:51:04.710Z,96281.59
2022-09-11T00:55:19.618Z,96278.06
2022-09-11T00:59:34.306Z,96284.44
2022-09-11T01:03:47.519Z,96282.16
2022-09-11T01:08:00.474Z,96281.19
2022-09-11T01:12:19.665Z,96288.34
2022-09-11T01:17:13.742Z,96283.47
2022-09-11T01:21:56.981Z,96275.06
2022-09-11T01:26:33.460Z,96278.88
2022-09-11T01:30:55.261Z,96270.34
2022-09-11T01:35:18.813Z,96284.25
2022-09-11T01:39:39.241Z,96286.16
2022-09-11T01:44:07.922Z,96273.47
2022-09-11T01:48:30.666Z,96276.78
2022-09-11T01:52:58.912Z,96276.88
2022-09-11T01:57:19.319Z,96278.34
2022-09-11T02:01:36.605Z,96262.84
2022-09-11T02:05:54.640Z,96269.44
2022-09-11T02:10:17.982Z,96276.19
2022-09-11T02:14:43.689Z,96281.78
2022-09-11T02:19:04.311Z,96281.03
2022-09-11T02:23:17.782Z,96273.19
2022-09-11T02:27:34.469Z,96274.34
2022-09-11T02:31:48.508Z,96275.31
2022-09-11T02:36:14.443Z,96271.72
2022-09-11T02:40:48.802Z,96266.53
2022-09-11T02:45:38.721Z,96262.31
2022-09-11T02:50:19.527Z,96270.47
2022-09-11T02:54:56.615Z,96256.47
2022-09-11T02:59:25.246Z,96258.88
2022-09-11T03:03:45.345Z,96256.59
2022-09-11T03:07:59.320Z,96249.28
2022-09-11T03:12:12.411Z,96253.69
2022-09-11T03:16:25.649Z,96254.69
2022-09-11T03:20:49.868Z,96255.97
2022-09-11T03:25:02.971Z,96260.06
2022-09-11T03:29:15.927Z,96252.91
2022-09-11T03:33:29.288Z,96245.47
2022-09-11T03:37:42.459Z,96249.44
2022-09-11T03:41:55.465Z,96249.91
2022-09-11T03:46:08.774Z,96254.50
2022-09-11T03:50:22.015Z,96249.91
2022-09-11T03:54:35.213Z,96252.78
2022-09-11T03:58:49.088Z,96250.78
2022-09-11T04:03:13.138Z,96245.41
2022-09-11T04:07:26.599Z,96249.78
2022-09-11T04:11:40.877Z,96249.78
2022-09-11T04:15:53.990Z,96259.84
2022-09-11T04:20:07.706Z,96241.94
2022-09-11T04:24:20.671Z,96247.50
2022-09-11T04:28:37.512Z,96235.06
2022-09-11T04:32:51.136Z,96245.56
2022-09-11T04:37:04.571Z,96240.41
2022-09-11T04:41:17.665Z,96245.81
2022-09-11T04:45:37.397Z,96243.91
2022-09-11T04:49:50.519Z,96245.78
2022-09-11T04:54:04.357Z,96247.88
2022-09-11T04:58:18.724Z,96243.19
2022-09-11T05:02:31.704Z,96263.22
2022-09-11T05:06:46.125Z,96257.22
2022-09-11T05:11:00.843Z,96256.94
2022-09-11T05:15:13.974Z,96257.50
2022-09-11T05:19:27.588Z,96261.63
2022-09-11T05:23:41.360Z,96247.22
2022-09-11T05:27:54.882Z,96256.78
2022-09-11T05:32:08.175Z,96259.44
2022-09-11T05:36:21.464Z,96260.22
2022-09-11T05:40:34.679Z,96259.84
2022-09-11T05:44:48.077Z,96271.03
2022-09-11T05:49:01.431Z,96273.94
2022-09-11T05:53:14.510Z,96269.31
2022-09-11T05:57:27.500Z,96283.41
2022-09-11T06:01:40.700Z,96276.09
2022-09-11T06:05:53.682Z,96290.56
2022-09-11T06:10:09.683Z,96286.75
2022-09-11T06:14:22.863Z,96292.78
2022-09-11T06:18:36.234Z,96292.25
2022-09-11T06:22:49.191Z,96304.34
2022-09-11T06:27:02.148Z,96314.22
2022-09-11T06:31:20.337Z,96305.88
2022-09-11T06:35:43.401Z,96305.03
2022-09-11T06:39:56.548Z,96309.75
2022-09-11T06:44:10.707Z,96313.69
2022-09-11T06:48:23.650Z,96318.41
2022-09-11T06:52:36.818Z,96327.41
2022-09-11T06:56:49.872Z,96320.19
2022-09-11T07:01:04.825Z,96323.19
2022-09-11T07:05:18.184Z,96329.91
2022-09-11T07:09:31.197Z,96332.16
2022-09-11T07:13:45.095Z,96330.06
2022-09-11T07:17:58.649Z,96322.59
2022-09-11T07:22:11.608Z,96334.03
2022-09-11T07:26:27.461Z,96341.00
2022-09-11T07:30:41.767Z,96340.16
2022-09-11T07:34:54.914Z,96348.06
2022-09-11T07:39:08.170Z,96349.13
2022-09-11T07:43:21.862Z,96351.56
2022-09-11T07:47:35.383Z,96365.66
2022-09-11T07:51:48.578Z,96359.28
2022-09-11T07:56:04.136Z,96361.47
2022-09-11T08:00:17.668Z,96363.97
2022-09-11T08:04:30.596Z,96370.09
2022-09-11T08:08:44.325Z,96371.13
2022-09-11T08:12:59.896Z,96379.94
2022-09-11T08:17:13.702Z,96379.66
2022-09-11T08:21:29.736Z,96392.25
2022-09-11T08:25:44.581Z,96393.06
2022-09-11T08:29:57.664Z,96403.63
2022-09-11T08:34:11.085Z,96406.31
2022-09-11T08:38:25.296Z,96407.59
2022-09-11T08:42:45.988Z,96409.31
2022-09-11T08:47:12.611Z,96422.59
2022-09-11T08:51:36.334Z,96425.88
2022-09-11T08:55:55.318Z,96429.47
2022-09-11T09:00:21.629Z,96425.06
2022-09-11T09:05:02.737Z,96434.81
2022-09-11T09:09:34.777Z,96427.16
2022-09-11T09:14:14.132Z,96439.97
2022-09-11T09:18:36.153Z,96428.88
2022-09-11T09:22:50.657Z,96437.38
2022-09-11T09:27:32.497Z,96440.94
2022-09-11T09:31:51.777Z,96447.50
2022-09-11T09:36:22.880Z,96456.69
2022-09-11T09:40:37.356Z,96455.50
2022-09-11T09:45:38.692Z,96447.03
2022-09-11T09:49:53.411Z,96464.22
2022-09-11T09:54:07.093Z,96472.72
2022-09-11T09:58:20.283Z,96474.06
2022-09-11T10:02:46.179Z,96469.47
2022-09-11T10:07:12.291Z,96471.19
2022-09-11T10:11:29.791Z,96473.06
2022-09-11T10:15:43.869Z,96472.84
2022-09-11T10:20:13.510Z,96468.06
2022-09-11T10:24:31.069Z,96471.69
2022-09-11T10:28:46.699Z,96466.75
2022-09-11T10:33:03.806Z,96465.56
2022-09-11T10:37:31.666Z,96470.88
2022-09-11T10:41:50.664Z,96466.75
2022-09-11T10:46:23.470Z,96465.72
2022-09-11T10:50:36.866Z,96472.88
2022-09-11T10:55:08.018Z,96480.75
2022-09-11T10:59:32.085Z,96472.03
2022-09-11T11:03:46.149Z,96464.31
2022-09-11T11:08:21.260Z,96466.41
2022-09-11T11:12:47.212Z,96475.88
2022-09-11T11:17:15.855Z,96482.81
2022-09-11T11:21:28.739Z,96471.09
2022-09-11T11:26:13.680Z,96491.69
2022-09-11T11:30:48.523Z,96491.69
2022-09-11T11:35:19.248Z,96489.91
2022-09-11T11:39:37.193Z,96492.91
2022-09-11T11:43:53.972Z,96491.03
2022-09-11T11:48:17.140Z,96491.22
2022-09-11T11:52:33.141Z,96499.63
2022-09-11T11:56:55.694Z,96501.63
2022-09-11T12:01:17.802Z,96500.00
2022-09-11T12:05:34.906Z,96505.47
2022-09-11T12:09:50.511Z,96507.25
2022-09-11T12:14:03.941Z,96503.72
2022-09-11T12:18:26.597Z,96513.75
2022-09-11T12:22:50.612Z,96513.53
2022-09-11T12:27:35.425Z,96512.50
2022-09-11T12:31:51.828Z,96513.09
2022-09-11T12:36:08.142Z,96514.84
2022-09-11T12:40:49.334Z,96512.75
2022-09-11T12:45:04.984Z,96505.66
2022-09-11T12:49:22.875Z,96506.25
2022-09-11T12:53:38.206Z,96494.84
2022-09-11T12:57:52.898Z,96490.69
2022-09-11T13:02:29.225Z,96496.81
2022-09-11T13:06:45.226Z,96492.41
2022-09-11T13:11:35.381Z,96490.03
2022-09-11T13:15:48.433Z,96489.97
2022-09-11T13:20:10.658Z,96495.28
2022-09-11T13:24:32.246Z,96485.69
2022-09-11T13:28:50.108Z,96482.22
2022-09-11T13:33:08.001Z,96487.63
2022-09-11T13:37:43.148Z,96498.94
2022-09-11T13:42:13.647Z,96491.56
2022-09-11T13:46:32.386Z,96490.84
2022-09-11T13:50:46.069Z,96489.34
2022-09-11T13:55:02.401Z,96474.44
2022-09-11T13:59:39.484Z,96480.19
2022-09-11T14:03:52.492Z,96490.84
2022-09-11T14:08:21.608Z,96480.53
2022-09-11T14:12:59.283Z,96491.81
2022-09-11T14:17:14.626Z,96483.88
2022-09-11T14:21:39.124Z,96487.50
2022-09-11T14:26:19.281Z,96484.91
2022-09-11T14:30:37.420Z,96476.50
2022-09-11T14:34:50.766Z,96474.31
2022-09-11T14:39:04.315Z,96474.09
2022-09-11T14:43:23.044Z,96474.06
2022-09-11T14:47:45.934Z,96477.88
2022-09-11T14:52:01.596Z,96480.19
2022-09-11T14:56:14.596Z,96483.25
2022-09-11T15:00:27.619Z,96474.84
2022-09-11T15:04:40.836Z,96473.25
2022-09-11T15:08:53.946Z,96469.00
2022-09-11T15:13:06.954Z,96463.38
2022-09-11T15:17:21.013Z,96471.75
2022-09-11T15:21:37.564Z,96469.28
2022-09-11T15:25:50.724Z,96478.19
2022-09-11T15:30:05.134Z,96476.84
2022-09-11T15:34:19.734Z,96474.88
2022-09-11T15:38:33.228Z,96464.69
2022-09-11T15:42:46.247Z,96460.50
2022-09-11T15:47:07.007Z,96462.09
2022-09-11T15:51:22.346Z,96467.94
2022-09-11T15:55:36.336Z,96470.50
2022-09-11T15:59:52.378Z,96469.47
2022-09-11T16:04:08.011Z,96468.97
2022-09-11T16:08:23.627Z,96466.22
2022-09-11T16:12:36.951Z,96466.69
2022-09-11T16:16:50.286Z,96464.91
2022-09-11T16:21:03.229Z,96465.19
2022-09-11T16:25:16.864Z,96464.38
2022-09-11T16:29:51.088Z,96457.34
2022-09-11T16:34:06.684Z,96458.63
2022-09-11T16:38:19.648Z,96455.31
2022-09-11T16:42:32.749Z,96461.44
2022-09-11T16:46:54.852Z,96462.22
2022-09-11T16:51:08.165Z,96467.00
2022-09-11T16:55:22.118Z,96460.94
2022-09-11T16:59:35.719Z,96470.28
2022-09-11T17:03:51.050Z,96463.63
2022-09-11T17:08:05.613Z,96459.72
2022-09-11T17:12:18.635Z,96454.84
2022-09-11T17:16:33.654Z,96454.75
2022-09-11T17:20:46.692Z,96459.47
2022-09-11T17:25:07.839Z,96458.06
2022-09-11T17:29:20.966Z,96451.31
2022-09-11T17:33:36.239Z,96454.22
2022-09-11T17:37:51.483Z,96460.25
2022-09-11T17:42:04.842Z,96461.72
2022-09-11T17:46:20.659Z,96466.50
2022-09-11T17:50:35.922Z,96466.00
2022-09-11T17:54:49.792Z,96467.28
2022-09-11T17:59:03.145Z,96474.88
2022-09-11T18:03:16.098Z,96473.06
2022-09-11T18:07:29.107Z,96472.75
2022-09-11T18:11:43.913Z,96467.28
2022-09-11T18:15:57.071Z,96483.25
2022-09-11T18:20:10.553Z,96479.25
2022-09-11T18:24:24.038Z,96481.63
2022-09-11T18:28:39.818Z,96475.16
2022-09-11T18:32:52.910Z,96479.13
2022-09-11T18:37:06.033Z,96474.03
2022-09-11T18:41:19.949Z,96477.81
2022-09-11T18:45:36.164Z,96467.84
2022-09-11T18:49:51.704Z,96467.81
2022-09-11T18:54:05.079Z,96476.53
2022-09-11T18:58:18.112Z,96475.66
2022-09-11T19:02:31.232Z,96476.53
2022-09-11T19:06:46.040Z,96477.50
2022-09-11T19:11:00.238Z,96486.44
2022-09-11T19:15:13.439Z,96483.50
2022-09-11T19:19:27.028Z,96490.00
2022-09-11T19:23:43.256Z,96496.53
2022-09-11T19:27:56.503Z,96499.97
2022-09-11T19:32:10.908Z,96494.41
2022-09-11T19:36:27.690Z,96508.09
2022-09-11T19:40:40.682Z,96501.06
2022-09-11T19:44:56.341Z,96504.41
2022-09-11T19:49:10.412Z,96507.13
2022-09-11T19:53:25.027Z,96504.41
2022-09-11T19:57:37.966Z,96507.72
2022-09-11T20:01:51.491Z,96499.56
2022-09-11T20:06:05.578Z,96494.97
2022-09-11T20:10:19.507Z,96495.03
2022-09-11T20:14:32.558Z,96502.09
2022-09-11T20:18:45.530Z,96500.00
2022-09-11T20:23:00.540Z,96492.03
2022-09-11T20:27:13.660Z,96501.13
2022-09-11T20:31:29.423Z,96497.19
2022-09-11T20:35:42.418Z,96499.09
2022-09-11T20:39:55.841Z,96503.06
2022-09-11T20:44:08.941Z,96500.19
2022-09-11T20:48:21.943Z,96502.19
2022-09-11T20:52:39.194Z,96496.06
2022-09-11T20:56:52.728Z,96487.91
2022-09-11T21:01:07.695Z,96499.91
2022-09-11T21:05:20.832Z,96501.34
2022-09-11T21:09:33.948Z,96501.09
2022-09-11T21:13:47.391Z,96495.59
2022-09-11T21:18:06.107Z,96499.16
2022-09-11T21:22:29.176Z,96493.16
2022-09-11T21:26:43.284Z,96495.28
2022-09-11T21:30:58.200Z,96495.78
2022-09-11T21:35:11.410Z,96492.09
2022-09-11T21:39:25.965Z,96498.56
2022-09-11T21:43:39.518Z,96494.88
2022-09-11T21:47:52.821Z,96489.50
2022-09-11T21:52:05.830Z,96485.53
2022-09-11T21:56:20.665Z,96489.38
2022-09-11T22:00:42.031Z,96489.53
2022-09-11T22:04:55.850Z,96487.22
2022-09-11T22:09:08.808Z,96493.38
2022-09-11T22:13:22.071Z,96479.72
2022-09-11T22:17:42.437Z,96490.31
2022-09-11T22:21:55.674Z,96481.72
2022-09-11T22:26:19.979Z,96487.25
2022-09-11T22:30:34.222Z,96488.94
2022-09-11T22:34:47.184Z,96494.75
2022-09-11T22:39:00.574Z,96482.31
2022-09-11T22:43:13.761Z,96481.84
2022-09-11T22:47:27.052Z,96487.38
2022-09-11T22:51:40.066Z,96480.16
2022-09-11T22:55:54.729Z,96475.56
2022-09-11T23:00:11.439Z,96485.53
2022-09-11T23:04:25.261Z,96478.03
2022-09-11T23:08:40.256Z,96472.78
2022-09-11T23:12:53.733Z,96481.09
2022-09-11T23:17:06.721Z,96475.56
2022-09-11T23:21:19.661Z,96476.78
2022-09-11T23:25:34.216Z,96470.47
2022-09-11T23:29:48.910Z,96473.38
2022-09-11T23:34:05.089Z,96473.09
2022-09-11T23:38:28.063Z,96463.41
2022-09-11T23:42:41.008Z,96460.94
2022-09-11T23:46:53.932Z,96456.94
2022-09-11T23:51:09.390Z,96450.50
2022-09-11T23:55:22.772Z,96442.97
2022-09-11T23:59:36.345Z,96444.34
